• Join FlightAware (Why Join?)
  • Login
  • US Flag 
09:36AM EDT


 

Airport Tracker/Info


-or-


 

Live Flight TrackerFlight Track Log ✈ N631S ✈ 13-Sep-2013 ✈ KBDR - KVKX

Flight Track Log - Related Links

Times and Time Zones

All times are in EDT time to prevent confusion due to time zone crossing. See the N631S flight status page for this flight to view local times or setup timezone preferences in your user account.

Time Position Orientation Groundspeed Altitude Reporting Facility
EDT Latitude Longitude Course Direction KTS MPH feet Rate Location/Type
03:44PM 41.1667 -73.1667 323° Northwest 60 69 1,000  Level New York TRACON
03:45PM 41.1833 -73.1833 323° Northwest 77 89 1,700 720 Climbing New York TRACON
03:46PM 41.2000 -73.2000 323° Northwest 77 89 2,500 780 Climbing New York TRACON
03:47PM 41.2167 -73.2167 323° Northwest 82 94 3,300 720 Climbing New York TRACON
03:48PM 41.2500 -73.2167 360° North 85 98 4,000 660 Climbing New York TRACON
03:49PM 41.2667 -73.2000 37° Northeast 82 94 4,700 660 Climbing New York TRACON
03:50PM 41.2833 -73.2167 323° Northwest 76 87 5,400 660 Climbing New York TRACON
03:51PM 41.3000 -73.2167 360° North 75 86 6,100 360 Climbing New York TRACON
03:52PM 41.3000 -73.2667 270° West 107 123 6,200  Climbing New York TRACON
03:53PM 41.3167 -73.3167 294° West 126 145 6,100 -60 Descending New York TRACON
03:54PM 41.3000 -73.3500 236° Southwest 123 142 6,100  Level New York TRACON
03:55PM 41.2833 -73.3833 236° Southwest 127 146 6,100 240 Level New York TRACON
03:56PM 41.2667 -73.4333 246° West 117 135 6,700 480 Climbing New York TRACON
03:57PM 41.2667 -73.4667 270° West 98 113 7,100 180 Climbing New York TRACON
03:58PM 41.2500 -73.5000 236° Southwest 124 143 7,100  Level New York TRACON
03:59PM 41.2333 -73.5500 246° West 129 148 7,100  Level New York TRACON
04:00PM 41.2167 -73.6000 246° West 134 154 7,100  Level New York TRACON
04:01PM 41.2167 -73.6333 270° West 126 145 7,100  Level New York TRACON
04:02PM 41.2000 -73.6833 246° West 128 147 7,100  Level New York TRACON
04:03PM 41.2000 -73.7333 270° West 127 146 7,100 300 Level New York TRACON
04:04PM 41.2000 -73.7667 270° West 90 104 7,800 480 Climbing New York TRACON
04:05PM 41.1833 -73.8000 236° Southwest 93 107 8,100 120 Climbing New York TRACON
04:06PM 41.1833 -73.8333 270° West 121 139 8,100 -60 Level New York TRACON
04:07PM 41.1667 -73.8833 246° West 121 139 8,000 -60 Descending New York TRACON
04:08PM 41.1667 -73.9167 270° West 122 140 8,000  Level New York TRACON
04:09PM 41.1667 -73.9667 270° West 118 136 8,000  Level New York TRACON
04:10PM 41.1500 -74.0167 246° West 124 143 8,100  Climbing New York TRACON
04:11PM 41.1500 -74.0500 270° West 121 139 8,000 -60 Descending New York TRACON
04:12PM 41.1333 -74.1000 246° West 122 140 8,000  Level New York TRACON
04:13PM 41.1333 -74.1500 270° West 127 146 8,000  Level New York TRACON
04:14PM 41.1167 -74.1833 236° Southwest 120 138 8,000  Level New York TRACON
04:15PM 41.1167 -74.2333 270° West 121 139 8,000  Level New York TRACON
04:16PM 41.1167 -74.2667 270° West 120 138 8,000  Level New York TRACON
04:17PM 41.1000 -74.3167 246° West 122 140 8,000  Level New York TRACON
04:18PM 41.1000 -74.3667 270° West 121 139 8,000  Level New York TRACON
04:19PM 41.0833 -74.4000 236° Southwest 128 147 8,000  Level New York TRACON
04:20PM 41.0500 -74.4333 217° Southwest 126 145 8,000 -60 Level New York TRACON
04:22PM 41.0584 -74.4837 282° West  Level FlightAware Approximate
04:29PM 40.8734 -74.6110 197° South  Level FlightAware Approximate
04:30PM 40.8410 -74.6240 197° South  Level FlightAware Approximate
04:31PM 40.8086 -74.6369 197° South  Level FlightAware Approximate
04:32PM 40.7762 -74.6499 197° South  Level FlightAware Approximate
04:33PM 40.7438 -74.6628 197° South  Level FlightAware Approximate
04:34PM 40.7114 -74.6758 197° South  Level FlightAware Approximate
04:35PM 40.6790 -74.6887 197° South  Level FlightAware Approximate
04:36PM 40.6466 -74.7016 197° South  Level FlightAware Approximate
04:37PM 40.6142 -74.7145 197° South  Level FlightAware Approximate
04:38PM 40.5817 -74.7273 197° South  Level FlightAware Approximate
04:39PM 40.5653 -74.7571 266° West  Level FlightAware Approximate
04:40PM 40.5627 -74.8016 266° West  Level FlightAware Approximate
04:41PM 40.5601 -74.8460 266° West  Level FlightAware Approximate
04:42PM 40.5575 -74.8904 266° West  Level FlightAware Approximate
04:43PM 40.5549 -74.9349 266° West  Level FlightAware Approximate
04:44PM 40.5522 -74.9793 266° West  Level FlightAware Approximate
04:45PM 40.5500 -75.0237 270° West  Level FlightAware Approximate
04:46PM 40.5477 -75.0680 261° West  Level FlightAware Approximate
04:47PM 40.5423 -75.1120 261° West  Level FlightAware Approximate
04:48PM 40.5368 -75.1560 261° West  Level FlightAware Approximate
04:49PM 40.5357 -75.1999 281° West  Level FlightAware Approximate
04:50PM 40.5420 -75.2437 281° West  Level FlightAware Approximate
04:51PM 40.5482 -75.2874 281° West  Level FlightAware Approximate
04:52PM 40.5514 -75.3317 273° West  Level FlightAware Approximate
04:53PM 40.5534 -75.3762 273° West  Level FlightAware Approximate
04:54PM 40.5554 -75.4207 273° West  Level FlightAware Approximate
04:55PM 40.5573 -75.4652 273° West  Level FlightAware Approximate
04:56PM 40.5593 -75.5097 273° West  Level FlightAware Approximate
04:57PM 40.5612 -75.5542 273° West  Level FlightAware Approximate
04:58PM 40.5631 -75.5987 273° West  Level FlightAware Approximate
04:59PM 40.5650 -75.6432 273° West  Level FlightAware Approximate
05:00PM 40.5643 -75.6864 225° Southwest  Level FlightAware Approximate
05:01PM 40.5406 -75.7182 225° Southwest  Level FlightAware Approximate
05:02PM 40.5168 -75.7499 225° Southwest  Level FlightAware Approximate
05:03PM 40.4931 -75.7816 225° Southwest  Level FlightAware Approximate
05:04PM 40.4693 -75.8133 225° Southwest  Level FlightAware Approximate
05:05PM 40.4455 -75.8450 225° Southwest  Level FlightAware Approximate
05:06PM 40.4217 -75.8766 225° Southwest  Level FlightAware Approximate
05:07PM 40.3979 -75.9083 225° Southwest  Level FlightAware Approximate
05:08PM 40.3742 -75.9400 225° Southwest  Level FlightAware Approximate
05:09PM 40.3504 -75.9717 226° Southwest  Level FlightAware Approximate
05:10PM 40.3267 -76.0034 226° Southwest  Level FlightAware Approximate
05:11PM 40.3030 -76.0350 225° Southwest  Level FlightAware Approximate
05:11PM 40.0500 -76.1667 226° Southwest 132 152 7,900  Level Potomac TRACON
05:12PM 40.2792 -76.0667 225° Southwest  Level FlightAware Approximate
05:12PM 40.0167 -76.1833 201° Southwest 130 150 7,900  Level Potomac TRACON
05:13PM 40.2555 -76.0983 226° Southwest  Level FlightAware Approximate
05:13PM 39.9833 -76.2000 201° Southwest 132 152 7,900  Level Potomac TRACON
05:14PM 40.2318 -76.1300 226° Southwest  Level FlightAware Approximate
05:15PM 40.2080 -76.1617 226° Southwest  Level FlightAware Approximate
05:15PM 39.9500 -76.2167 201° Southwest 132 152 7,900  Level Potomac TRACON
05:16PM 40.1843 -76.1933 226° Southwest  Level FlightAware Approximate
05:16PM 39.9167 -76.2333 201° Southwest 135 155 7,900  Level Potomac TRACON
05:17PM 40.1606 -76.2249 226° Southwest  Level FlightAware Approximate
05:17PM 39.8833 -76.2667 218° Southwest 136 157 7,900  Level Potomac TRACON
05:18PM 39.8500 -76.2833 201° Southwest 135 155 7,900  Level Potomac TRACON
05:19PM 39.8167 -76.3000 201° Southwest 132 152 7,900  Level Potomac TRACON
05:20PM 39.7667 -76.3167 194° South 134 154 7,900  Level Potomac TRACON
05:21PM 39.7333 -76.3333 201° Southwest 134 154 7,900  Level Potomac TRACON
05:22PM 39.7000 -76.3500 201° Southwest 133 153 7,900  Level Potomac TRACON
05:23PM 39.6667 -76.3833 218° Southwest 129 148 7,900  Level Potomac TRACON
05:24PM 39.6333 -76.4000 201° Southwest 131 151 7,900  Level Potomac TRACON
05:25PM 39.6000 -76.4167 201° Southwest 130 150 7,900 -420 Level Potomac TRACON
05:26PM 39.5667 -76.4333 201° Southwest 160 184 7,100 -780 Descending Potomac TRACON
05:27PM 39.5333 -76.4667 218° Southwest 159 183 6,400 -600 Descending Potomac TRACON
05:28PM 39.4833 -76.4833 194° South 152 175 6,000 -180 Descending Potomac TRACON
05:29PM 39.4500 -76.5000 201° Southwest 138 159 6,100  Climbing Potomac TRACON
05:30PM 39.4167 -76.5167 201° Southwest 137 158 6,100  Level Potomac TRACON
05:31PM 39.3833 -76.5333 201° Southwest 137 158 6,100  Level Potomac TRACON
05:32PM 39.3500 -76.5667 218° Southwest 139 160 6,100 -60 Level Potomac TRACON
05:33PM 39.3000 -76.5833 194° South 141 162 6,000 -60 Descending Potomac TRACON
05:34PM 39.2667 -76.6000 201° Southwest 139 160 6,000  Level Potomac TRACON
05:35PM 39.2333 -76.6167 201° Southwest 141 162 6,100  Climbing Potomac TRACON
05:36PM 39.2000 -76.6500 218° Southwest 143 165 6,100  Level Potomac TRACON
05:37PM 39.1667 -76.6667 201° Southwest 141 162 6,100  Level Potomac TRACON
05:38PM 39.1167 -76.6667 180° South 145 167 6,100  Level Potomac TRACON
05:39PM 39.0833 -76.6833 201° Southwest 145 167 6,100  Level Potomac TRACON
05:40PM 39.0500 -76.6833 180° South 147 169 6,100 -60 Level Potomac TRACON
05:41PM 39.0000 -76.6833 180° South 150 173 6,000 -180 Descending Potomac TRACON
05:42PM 38.9667 -76.7000 201° Southwest 151 174 5,800 -480 Descending Potomac TRACON
05:43PM 38.9167 -76.7000 180° South 167 192 5,100 -780 Descending Potomac TRACON
05:44PM 38.8833 -76.7167 201° Southwest 162 186 4,300 -960 Descending Potomac TRACON
05:45PM 38.8500 -76.7667 229° Southwest 146 168 3,200 -1,200 Descending Potomac TRACON
05:46PM 38.8333 -76.8000 237° Southwest 148 170 2,000 -600 Descending Potomac TRACON
05:47PM 38.8000 -76.8333 218° Southwest 115 132 2,000 -120 Level Potomac TRACON
05:48PM 38.8000 -76.8667 270° West 111 128 1,800 -240 Descending Potomac TRACON
05:49PM 38.7833 -76.9000 237° Southwest 96 110 1,600 -300 Descending Potomac TRACON
05:50PM 38.7667 -76.9333 237° Southwest 93 107 1,200 -600 Descending Potomac TRACON
05:51PM 38.7500 -76.9500 218° Southwest 76 87 400 -840 Descending Potomac TRACON
05:53PM 38.7486 -76.9559 210° Southwest  Level Estimated
06:00PM 38.7486 -76.9559 210° Southwest  Level Estimated
06:01PM 38.7486 -76.9559 210° Southwest  Level Estimated
06:02PM 38.7486 -76.9559 210° Southwest  Level Estimated
06:03PM 38.7486 -76.9559 210° Southwest  Level Estimated